Terminal Aerodrome Forecast
Issued by NWS

Home | Current Version | Previous Version | Text Only | Print | Product List | Glossary Off
Versions: 1 2 3 4 5 6 7 8 9 10 11 12 13 14 15 16 17 18 19

000
FTUS43 KICT 010520
TAFSLN
TAF
KSLN 010520Z 0106/0206 20010KT P6SM SCT100 BKN250
     FM011300 23008KT P6SM VCTS BKN100CB
     FM011800 27010KT P6SM BKN100
     FM012100 35012KT P6SM SCT120
     FM020000 35010KT P6SM SCT250=

USA.gov is the U.S. government's official web portal to all federal, state and local government web resources and services.